EPPO

Poznań-Ławica Airport

Poznań, Poland
METAR EPPO 241300Z 29016KT 9999 BKN030CB 11/06 Q1019 R10/290195
Observed Flight Rules
Sep-24 @ 13:00 UTC (36 minutes ago) Marginal Visual Flight Rules
Wind Visibility Clouds
290° at 16 knots 10,000+ meters
  • Broken at 3,000' AGL
Temperatures Readings
Current 11°C / 52°F
Dewpoint 6°C / 43°F
Humidity 72%
Altimeter 30.09" Hg
Pressure 1019 hPa
Elevation 92
METAR EPPO 241300Z 29016KT 9999 BKN030CB 11/06 Q1019 R10/290195
Observed Flight Rules
Sep-24 @ 13:00 UTC
(36 minutes ago)
MVFR
Wind Visibility
290° at 16 knots 10,000+ meters
Clouds
  • Broken at 3,000' AGL
Temperature Dewpoint
11°C / 52°F 6°C / 43°F
Humidity Altimeter Pressure
72% 30.09" Hg 1019 hPa